createdAt,value
2023-02-15T00:01:45.727Z,6.93
2023-02-15T00:05:10.875Z,6.96
2023-02-15T00:08:36.075Z,6.94
2023-02-15T00:12:01.269Z,6.93
2023-02-15T00:15:26.391Z,6.91
2023-02-15T00:18:51.567Z,6.93
2023-02-15T00:22:16.727Z,6.95
2023-02-15T00:25:41.875Z,6.97
2023-02-15T00:29:07.056Z,6.98
2023-02-15T00:32:32.244Z,7.02
2023-02-15T00:35:57.400Z,7.02
2023-02-15T00:39:22.575Z,7
2023-02-15T00:42:47.741Z,6.94
2023-02-15T00:46:12.996Z,6.87
2023-02-15T00:49:38.111Z,6.82
2023-02-15T00:53:03.306Z,6.81
2023-02-15T00:56:28.463Z,6.8
2023-02-15T00:59:53.659Z,6.79
2023-02-15T01:03:18.866Z,6.78
2023-02-15T01:06:43.993Z,6.7
2023-02-15T01:10:09.152Z,6.61
2023-02-15T01:13:34.321Z,6.5
2023-02-15T01:16:59.488Z,6.37
2023-02-15T01:20:24.667Z,6.23
2023-02-15T01:23:49.812Z,6.13
2023-02-15T01:27:15.006Z,6.04
2023-02-15T01:30:40.163Z,5.93
2023-02-15T01:34:05.344Z,5.83
2023-02-15T01:37:30.565Z,5.73
2023-02-15T01:40:55.696Z,5.65
2023-02-15T01:44:20.857Z,5.56
2023-02-15T01:47:46.027Z,5.43
2023-02-15T01:51:11.182Z,5.37
2023-02-15T01:54:36.374Z,5.32
2023-02-15T01:58:01.516Z,5.29
2023-02-15T02:01:26.708Z,5.26
2023-02-15T02:04:51.847Z,5.24
2023-02-15T02:08:17.006Z,5.25
2023-02-15T02:11:42.167Z,5.32
2023-02-15T02:15:07.322Z,5.39
2023-02-15T02:18:32.490Z,5.43
2023-02-15T02:21:57.675Z,5.41
2023-02-15T02:25:22.825Z,5.37
2023-02-15T02:28:48.022Z,5.28
2023-02-15T02:32:13.184Z,5.17
2023-02-15T02:35:38.366Z,5.05
2023-02-15T02:39:03.558Z,4.9
2023-02-15T02:42:28.718Z,4.76
2023-02-15T02:45:53.960Z,4.67
2023-02-15T02:49:19.040Z,4.59
2023-02-15T02:52:44.218Z,4.51
2023-02-15T02:56:09.378Z,4.4
2023-02-15T02:59:34.538Z,4.35
2023-02-15T03:02:59.789Z,4.3
2023-02-15T03:06:24.901Z,4.26
2023-02-15T03:09:50.067Z,4.16
2023-02-15T03:13:15.259Z,4.1
2023-02-15T03:16:40.425Z,4.05
2023-02-15T03:20:05.628Z,3.96
2023-02-15T03:23:30.775Z,3.9
2023-02-15T03:26:55.959Z,3.86
2023-02-15T03:30:21.182Z,3.78
2023-02-15T03:33:46.290Z,3.69
2023-02-15T03:37:11.472Z,3.62
2023-02-15T03:40:36.649Z,3.56
2023-02-15T03:44:01.825Z,3.51
2023-02-15T03:47:26.992Z,3.44
2023-02-15T03:50:52.175Z,3.4
2023-02-15T03:54:17.392Z,3.37
2023-02-15T03:57:42.541Z,3.34
2023-02-15T04:01:07.778Z,3.3
2023-02-15T04:04:32.915Z,3.25
2023-02-15T04:07:58.095Z,3.21
2023-02-15T04:11:23.275Z,3.2
2023-02-15T04:14:48.434Z,3.24
2023-02-15T04:18:13.592Z,3.24
2023-02-15T04:21:38.767Z,3.26
2023-02-15T04:25:03.953Z,3.31
2023-02-15T04:28:29.184Z,3.36
2023-02-15T04:31:54.427Z,3.4
2023-02-15T04:35:19.518Z,3.4
2023-02-15T04:38:44.683Z,3.4
2023-02-15T04:42:09.875Z,3.43
2023-02-15T04:45:35.113Z,3.43
2023-02-15T04:49:00.255Z,3.39
2023-02-15T04:52:25.458Z,3.36
2023-02-15T04:55:50.649Z,3.35
2023-02-15T04:59:15.872Z,3.35
2023-02-15T05:02:41.081Z,3.3
2023-02-15T05:06:06.243Z,3.23
2023-02-15T05:09:31.438Z,3.21
2023-02-15T05:12:56.601Z,3.18
2023-02-15T05:16:21.833Z,3.13
2023-02-15T05:19:47.033Z,3.13
2023-02-15T05:23:12.162Z,3.14
2023-02-15T05:26:37.362Z,3.15
2023-02-15T05:30:02.738Z,3.18
2023-02-15T05:33:27.758Z,3.2
2023-02-15T05:36:52.971Z,3.16
2023-02-15T05:40:18.175Z,3.11
2023-02-15T05:43:43.379Z,3.06
2023-02-15T05:47:08.587Z,3.01
2023-02-15T05:50:33.757Z,2.99
2023-02-15T05:53:58.978Z,2.99
2023-02-15T05:57:24.280Z,2.99
2023-02-15T06:00:49.597Z,2.9
2023-02-15T06:04:14.822Z,2.82
2023-02-15T06:07:40.034Z,2.8
2023-02-15T06:11:05.260Z,2.83
2023-02-15T06:14:30.408Z,2.88
2023-02-15T06:17:55.642Z,2.85
2023-02-15T06:21:20.820Z,2.85
2023-02-15T06:24:46.004Z,2.87
2023-02-15T06:28:11.231Z,2.89
2023-02-15T06:31:36.538Z,2.9
2023-02-15T06:35:01.715Z,2.87
2023-02-15T06:38:26.845Z,2.8
2023-02-15T06:41:52.065Z,2.75
2023-02-15T06:45:17.262Z,2.73
2023-02-15T06:48:42.429Z,2.72
2023-02-15T06:52:07.611Z,2.67
2023-02-15T06:55:32.780Z,2.63
2023-02-15T06:58:57.987Z,2.62
2023-02-15T07:02:23.225Z,2.62
2023-02-15T07:05:48.609Z,2.66
2023-02-15T07:09:13.852Z,2.73
2023-02-15T07:12:39.025Z,2.77
2023-02-15T07:16:04.460Z,2.8
2023-02-15T07:19:29.541Z,2.86
2023-02-15T07:22:54.719Z,2.91
2023-02-15T07:26:19.941Z,2.97
2023-02-15T07:29:45.185Z,3.05
2023-02-15T07:33:10.378Z,3.14
2023-02-15T07:36:35.665Z,3.22
2023-02-15T07:40:00.847Z,3.3
2023-02-15T07:43:26.060Z,3.4
2023-02-15T07:46:51.331Z,3.47
2023-02-15T07:50:16.479Z,3.56
2023-02-15T07:53:41.758Z,3.66
2023-02-15T07:57:06.964Z,3.78
2023-02-15T08:00:32.152Z,3.88
2023-02-15T08:03:57.755Z,3.99
2023-02-15T08:07:22.920Z,4.11
2023-02-15T08:10:48.164Z,4.27
2023-02-15T08:14:13.356Z,4.41
2023-02-15T08:17:38.591Z,4.55
2023-02-15T08:21:03.814Z,4.72
2023-02-15T08:24:29.211Z,4.86
2023-02-15T08:27:54.504Z,5
2023-02-15T08:31:19.792Z,5.11
2023-02-15T08:34:44.856Z,5.23
2023-02-15T08:38:10.243Z,5.39
2023-02-15T08:41:35.412Z,5.6
2023-02-15T08:45:00.698Z,5.84
2023-02-15T08:48:25.874Z,6.05
2023-02-15T08:51:51.182Z,6.28
2023-02-15T08:55:16.426Z,6.45
2023-02-15T08:58:41.630Z,6.6
2023-02-15T09:02:06.947Z,6.75
2023-02-15T09:05:32.134Z,6.86
2023-02-15T09:08:57.332Z,6.96
2023-02-15T09:12:22.557Z,7.08
2023-02-15T09:15:47.768Z,7.2
2023-02-15T09:19:12.996Z,7.33
2023-02-15T09:22:38.179Z,7.46
2023-02-15T09:26:03.364Z,7.59
2023-02-15T09:29:28.577Z,7.74
2023-02-15T09:32:53.811Z,7.85
2023-02-15T09:36:19.053Z,7.96
2023-02-15T09:39:44.267Z,8.07
2023-02-15T09:43:09.467Z,8.19
2023-02-15T09:46:34.677Z,8.28
2023-02-15T09:49:59.867Z,8.36
2023-02-15T09:53:25.127Z,8.45
2023-02-15T09:56:50.292Z,8.53
2023-02-15T10:00:15.533Z,8.62
2023-02-15T10:03:40.775Z,8.72
2023-02-15T10:07:05.943Z,8.81
2023-02-15T10:10:31.198Z,8.87
2023-02-15T10:13:56.378Z,8.97
2023-02-15T10:17:21.590Z,9.09
2023-02-15T10:20:46.789Z,9.2
2023-02-15T10:24:11.981Z,9.3
2023-02-15T10:27:37.228Z,9.37
2023-02-15T10:31:02.782Z,9.45
2023-02-15T10:34:27.575Z,9.51
2023-02-15T10:37:52.812Z,9.59
2023-02-15T10:41:18.032Z,9.65
2023-02-15T10:44:43.284Z,9.75
2023-02-15T10:48:08.420Z,9.85
2023-02-15T10:51:33.608Z,9.97
2023-02-15T10:54:58.815Z,10.09
2023-02-15T10:58:24.106Z,10.18
2023-02-15T11:01:49.416Z,10.28
2023-02-15T11:05:14.587Z,10.38
2023-02-15T11:08:39.710Z,10.5
2023-02-15T11:12:04.900Z,10.61
2023-02-15T11:15:30.120Z,10.72
2023-02-15T11:18:55.374Z,10.82
2023-02-15T11:22:21.144Z,10.9
2023-02-15T11:25:46.303Z,10.95
2023-02-15T11:29:11.560Z,10.97
2023-02-15T11:32:36.784Z,10.96
2023-02-15T11:36:02.016Z,10.96
2023-02-15T11:39:27.186Z,10.96
2023-02-15T11:42:52.406Z,10.95
2023-02-15T11:46:17.658Z,11.01
2023-02-15T11:49:42.826Z,11.02
2023-02-15T11:53:08.178Z,11.06
2023-02-15T11:56:33.264Z,11.09
2023-02-15T11:59:58.466Z,11.11
2023-02-15T12:03:23.675Z,11.13
2023-02-15T12:06:48.878Z,11.13
2023-02-15T12:10:14.120Z,11.19
2023-02-15T12:13:39.312Z,11.24
2023-02-15T12:17:04.556Z,11.32
2023-02-15T12:20:29.728Z,11.38
2023-02-15T12:23:54.945Z,11.43
2023-02-15T12:27:20.162Z,11.46
2023-02-15T12:30:45.347Z,11.46
2023-02-15T12:34:10.578Z,11.43
2023-02-15T12:37:35.792Z,11.42
2023-02-15T12:41:01.317Z,11.43
2023-02-15T12:44:26.232Z,11.38
2023-02-15T12:47:51.458Z,11.32
2023-02-15T12:51:16.691Z,11.28
2023-02-15T12:54:41.921Z,11.23
2023-02-15T12:58:07.394Z,11.16
2023-02-15T13:01:32.612Z,11.12
2023-02-15T13:04:57.809Z,11.09
2023-02-15T13:08:23.061Z,11.05
2023-02-15T13:11:48.269Z,11.03
2023-02-15T13:15:13.489Z,11.03
2023-02-15T13:18:38.722Z,11.05
2023-02-15T13:22:03.904Z,11.06
2023-02-15T13:25:29.102Z,11.02
2023-02-15T13:28:54.340Z,10.94
2023-02-15T13:32:19.601Z,10.85
2023-02-15T13:35:44.764Z,10.76
2023-02-15T13:39:09.958Z,10.7
2023-02-15T13:42:35.159Z,10.65
2023-02-15T13:46:00.893Z,10.64
2023-02-15T13:49:25.634Z,10.62
2023-02-15T13:52:50.862Z,10.67
2023-02-15T13:56:16.051Z,10.73
2023-02-15T13:59:41.274Z,10.79
2023-02-15T14:03:06.474Z,10.86
2023-02-15T14:06:31.706Z,10.91
2023-02-15T14:09:56.924Z,10.95
2023-02-15T14:13:22.105Z,10.97
2023-02-15T14:17:00.806Z,11
2023-02-15T14:20:12.520Z,10.98
2023-02-15T14:23:37.743Z,10.96
2023-02-15T14:27:03.011Z,10.88
2023-02-15T14:30:28.249Z,10.78
2023-02-15T15:03:48.224Z,7.42
2023-02-15T15:07:13.397Z,8.38
2023-02-15T15:10:38.606Z,8.61
2023-02-15T15:14:03.844Z,8.8
2023-02-15T15:17:29.051Z,8.94
2023-02-15T15:20:54.350Z,9.09
2023-02-15T15:24:19.550Z,9.21
2023-02-15T15:27:44.761Z,9.31
2023-02-15T15:31:10.049Z,9.36
2023-02-15T15:34:35.183Z,9.4
2023-02-15T15:38:00.391Z,9.37
2023-02-15T15:41:25.593Z,9.31
2023-02-15T15:44:50.836Z,9.23
2023-02-15T15:48:16.017Z,9.19
2023-02-15T15:51:41.250Z,9.08
2023-02-15T15:55:06.526Z,8.93
2023-02-15T15:58:31.656Z,8.82
2023-02-15T16:01:56.919Z,8.74
2023-02-15T16:05:22.115Z,8.68
2023-02-15T16:08:47.332Z,8.59
2023-02-15T16:12:12.626Z,8.55
2023-02-15T16:15:37.748Z,8.49
2023-02-15T16:19:03.981Z,8.44
2023-02-15T16:22:28.169Z,8.37
2023-02-15T16:25:53.393Z,8.27
2023-02-15T16:29:18.634Z,8.18
2023-02-15T16:32:43.842Z,8.08
2023-02-15T16:36:09.064Z,8.04
2023-02-15T16:39:34.252Z,7.97
2023-02-15T16:42:59.465Z,7.88
2023-02-15T16:46:24.742Z,7.77
2023-02-15T16:49:49.895Z,7.64
2023-02-15T16:53:15.110Z,7.48
2023-02-15T16:56:40.352Z,7.39
2023-02-15T17:00:05.543Z,7.32
2023-02-15T17:03:30.825Z,7.26
2023-02-15T17:06:55.941Z,7.22
2023-02-15T17:10:21.164Z,7.19
2023-02-15T17:13:46.368Z,7.15
2023-02-15T17:17:11.597Z,7.08
2023-02-15T17:20:37.484Z,7.01
2023-02-15T17:24:02.067Z,6.9
2023-02-15T17:27:27.259Z,6.81
2023-02-15T17:30:52.404Z,6.72
2023-02-15T17:34:17.604Z,6.6
2023-02-15T17:37:42.985Z,6.51
2023-02-15T17:41:08.082Z,6.45
2023-02-15T17:44:33.302Z,6.41
2023-02-15T17:47:58.549Z,6.35
2023-02-15T17:51:23.819Z,6.27
2023-02-15T17:54:49.013Z,6.18
2023-02-15T17:58:14.180Z,6.09
2023-02-15T18:01:39.433Z,6.08
2023-02-15T18:05:04.607Z,6.05
2023-02-15T18:08:29.766Z,6
2023-02-15T18:11:55.015Z,5.91
2023-02-15T18:15:20.165Z,5.86
2023-02-15T18:18:45.335Z,5.78
2023-02-15T18:22:10.521Z,5.77
2023-02-15T18:25:35.724Z,5.78
2023-02-15T18:29:00.921Z,5.8
2023-02-15T18:32:26.097Z,5.82
2023-02-15T18:35:51.267Z,5.76
2023-02-15T18:39:16.528Z,5.75
2023-02-15T18:42:41.718Z,5.76
2023-02-15T18:46:07.148Z,5.81
2023-02-15T18:49:32.292Z,5.82
2023-02-15T18:52:57.559Z,5.85
2023-02-15T18:56:22.801Z,5.85
2023-02-15T18:59:48.052Z,5.85
2023-02-15T19:03:13.301Z,5.89
2023-02-15T19:06:38.514Z,5.92
2023-02-15T19:10:03.759Z,5.93
2023-02-15T19:13:28.998Z,5.93
2023-02-15T19:16:54.380Z,5.92
2023-02-15T19:20:19.743Z,5.92
2023-02-15T19:23:44.876Z,5.91
2023-02-15T19:27:10.120Z,5.9
2023-02-15T19:30:35.382Z,5.91
2023-02-15T19:34:00.581Z,5.94
2023-02-15T19:37:25.808Z,5.96
2023-02-15T19:40:51.033Z,5.95
2023-02-15T19:44:16.250Z,5.96
2023-02-15T19:47:41.514Z,5.97
2023-02-15T19:51:06.833Z,5.93
2023-02-15T19:54:32.131Z,5.92
2023-02-15T19:57:57.337Z,5.91
2023-02-15T20:01:22.619Z,5.82
2023-02-15T20:04:47.897Z,5.79
2023-02-15T20:08:13.102Z,5.78
2023-02-15T20:11:38.345Z,5.77
2023-02-15T20:15:03.535Z,5.74
2023-02-15T20:18:28.798Z,5.72
2023-02-15T20:21:54.036Z,5.66
2023-02-15T20:25:19.284Z,5.63
2023-02-15T20:28:44.596Z,5.63
2023-02-15T20:32:09.863Z,5.63
2023-02-15T20:35:35.073Z,5.59
2023-02-15T20:39:00.297Z,5.53
2023-02-15T20:42:25.548Z,5.48
2023-02-15T20:45:50.871Z,5.44
2023-02-15T20:49:16.069Z,5.4
2023-02-15T20:52:41.341Z,5.34
2023-02-15T20:56:06.536Z,5.23
2023-02-15T20:59:31.787Z,5.17
2023-02-15T21:02:57.081Z,5.14
2023-02-15T21:06:22.289Z,5.09
2023-02-15T21:09:47.536Z,5.13
2023-02-15T21:13:12.757Z,5.16
2023-02-15T21:16:37.972Z,5.25
2023-02-15T21:20:03.290Z,5.35
2023-02-15T21:23:28.431Z,5.42
2023-02-15T21:26:53.630Z,5.46
2023-02-15T21:30:18.910Z,5.49
2023-02-15T21:33:44.354Z,5.51
2023-02-15T21:37:09.416Z,5.52
2023-02-15T21:40:34.489Z,5.49
2023-02-15T21:43:59.700Z,5.49
2023-02-15T21:47:24.907Z,5.43
2023-02-15T21:50:50.146Z,5.36
2023-02-15T21:54:15.410Z,5.32
2023-02-15T21:57:40.580Z,5.3
2023-02-15T22:01:06.253Z,5.3
2023-02-15T22:04:31.054Z,5.29
2023-02-15T22:07:56.266Z,5.26
2023-02-15T22:11:21.554Z,5.17
2023-02-15T22:14:46.744Z,5.09
2023-02-15T22:18:11.959Z,5.03
2023-02-15T22:21:37.183Z,4.89
2023-02-15T22:25:02.390Z,4.79
2023-02-15T22:28:27.750Z,4.68
2023-02-15T22:31:52.881Z,4.57
2023-02-15T22:35:17.981Z,4.46
2023-02-15T22:38:43.202Z,4.37
2023-02-15T22:42:08.412Z,4.26
2023-02-15T22:45:33.758Z,4.12
2023-02-15T22:48:58.856Z,4.04
2023-02-15T22:52:24.072Z,3.97
2023-02-15T22:55:49.280Z,3.91
2023-02-15T22:59:14.481Z,3.9
2023-02-15T23:02:39.736Z,3.89
2023-02-15T23:06:04.930Z,3.93
2023-02-15T23:09:30.161Z,4
2023-02-15T23:12:55.411Z,4.03
2023-02-15T23:16:20.703Z,4.1
2023-02-15T23:19:45.902Z,4.15
2023-02-15T23:23:11.099Z,4.2
2023-02-15T23:26:36.307Z,4.26
2023-02-15T23:30:01.551Z,4.3
2023-02-15T23:33:26.726Z,4.35
2023-02-15T23:36:51.963Z,4.4
2023-02-15T23:40:17.176Z,4.47
2023-02-15T23:43:42.370Z,4.55
2023-02-15T23:47:09.288Z,4.66
2023-02-15T23:50:34.486Z,4.74
2023-02-15T23:53:59.742Z,4.79
2023-02-15T23:57:24.916Z,4.83
